This is the latest recevied weather packets stored in our database for station/object LZ2SMX-2. If no packets are shown the sender has not sent any weather packets the latest 1 day(s).
| Time | Temp. | Humidity | Pressure | Rain* | Wind** | Luminosity | Snow |
|---|---|---|---|---|---|---|---|
| 1778009588 | 8.89° C | 82% | 991 hPa | 0 mm | 0 m/s | - | - |
| 1778008388 | 8.89° C | 80% | 991 hPa | 0 mm | 0 m/s | - | - |
| 1778007188 | 10° C | 80% | 991 hPa | 0 mm | 0.45 m/s, 112° | - | - |
| 1778005988 | 10° C | 77% | 991 hPa | 0 mm | 0.45 m/s, 135° | - | - |
| 1778004789 | 10° C | 70% | 991 hPa | 0 mm | 0.45 m/s, 112° | - | - |
| 1778003589 | 10.56° C | 68% | 990 hPa | 0 mm | 0 m/s | - | - |
| 1778002388 | 10.56° C | 65% | 990 hPa | 0 mm | 0 m/s | - | - |
| 1778001188 | 11.67° C | 61% | 989 hPa | 0 mm | 0 m/s | - | - |
| 1777999988 | 12.78° C | 60% | 990 hPa | 0 mm | 0 m/s | - | - |
| 1777998788 | 13.89° C | 58% | 990 hPa | 0 mm | 0.45 m/s, 135° | - | - |
| 1777997588 | 13.89° C | 57% | 990 hPa | 0 mm | 0.45 m/s, 112° | - | - |
| 1777996389 | 15° C | 53% | 989 hPa | 0 mm | 0.89 m/s, 135° | - | - |
| 1777995190 | 15.56° C | 55% | 989 hPa | 0 mm | 0.45 m/s, 135° | - | - |
| 1777993989 | 15.56° C | 54% | 989 hPa | 0 mm | 0.89 m/s, 135° | - | - |
| 1777992788 | 16.67° C | 50% | 990 hPa | 0 mm | 0.89 m/s, 135° | - | - |
| 1777991589 | 17.78° C | 49% | 989 hPa | 0 mm | 0.89 m/s, 112° | - | - |
| 1777990388 | 17.78° C | 46% | 989 hPa | 0 mm | 1.34 m/s, 112° | - | - |
| 1777989188 | 17.78° C | 45% | 990 hPa | 0 mm | 0.89 m/s, 112° | - | - |
| 1777987989 | 18.89° C | 46% | 990 hPa | 0 mm | 0.89 m/s, 112° | - | - |
| 1777986789 | 18.89° C | 43% | 990 hPa | 0 mm | 0.89 m/s, 135° | - | - |
| 1777985589 | 18.89° C | 44% | 990 hPa | 0 mm | 1.34 m/s, 135° | - | - |
| 1777984389 | 18.89° C | 44% | 990 hPa | 0 mm | 0.89 m/s, 135° | - | - |
| 1777983187 | 20° C | 44% | 989 hPa | 0 mm | 0.89 m/s, 157° | - | - |
| 1777981988 | 20° C | 44% | 989 hPa | 0 mm | 1.34 m/s, 157° | - | - |
| 1777980788 | 20.56° C | 42% | 989 hPa | 0 mm | 1.34 m/s, 157° | - | - |
* Rain latest hour (hover to see other rain measurements)
** Current wind speed in m/s (hover to see current wind gust speed)